Time;durP1;ratioP1;P1;durP2;ratioP2;P2;SDS_P1;SDS_P2;PMS_P1;PMS_P2;Temp;Humidity;BMP_temperature;BMP_pressure;BME280_temperature;BME280_humidity;BME280_pressure;Samples;Min_cycle;Max_cycle;Signal;HPM_P1;HPM_P2
2020/12/05 00:01:19;;;;;;;8.03;7.20;;;5.40;99.90;;;;;;5026684;28;20194;-72
2020/12/05 00:03:45;;;;;;;8.87;7.50;;;5.40;99.90;;;;;;5030739;28;20635;-72
2020/12/05 00:06:10;;;;;;;8.13;7.30;;;5.40;99.90;;;;;;5024708;28;20188;-72
2020/12/05 00:08:36;;;;;;;9.63;8.10;;;5.40;99.90;;;;;;5035272;28;20203;-72
2020/12/05 00:11:02;;;;;;;9.27;8.27;;;5.40;99.90;;;;;;5036302;28;20203;-72
2020/12/05 00:13:27;;;;;;;8.73;7.93;;;5.40;99.90;;;;;;5035109;28;20228;-71
2020/12/05 00:15:53;;;;;;;9.70;8.70;;;5.40;99.90;;;;;;5023261;28;20180;-72
2020/12/05 00:18:18;;;;;;;10.60;9.10;;;5.40;99.90;;;;;;5024372;28;20191;-72
2020/12/05 00:20:45;;;;;;;12.37;9.13;;;5.40;99.90;;;;;;5023899;28;20183;-72
2020/12/05 00:23:12;;;;;;;12.00;9.90;;;5.30;99.90;;;;;;5031078;28;20239;-72
2020/12/05 00:25:41;;;;;;;8.93;7.87;;;5.40;99.90;;;;;;5025013;28;20426;-72
2020/12/05 00:28:06;;;;;;;12.00;9.43;;;5.30;99.90;;;;;;5029856;28;21021;-72
2020/12/05 00:30:33;;;;;;;11.10;8.47;;;5.30;99.90;;;;;;5026755;28;20533;-72
2020/12/05 00:33:00;;;;;;;10.23;8.97;;;5.40;99.90;;;;;;5023242;28;20535;-72
2020/12/05 00:35:27;;;;;;;10.80;8.80;;;5.40;99.90;;;;;;5031448;28;20938;-72
2020/12/05 00:37:53;;;;;;;9.50;8.60;;;5.50;99.90;;;;;;5016143;28;20427;-72
2020/12/05 00:40:19;;;;;;;9.23;8.20;;;5.50;99.90;;;;;;5029889;28;20450;-72
2020/12/05 00:42:46;;;;;;;9.00;8.10;;;5.50;99.90;;;;;;5033541;28;20467;-72
2020/12/05 00:45:12;;;;;;;9.77;8.47;;;5.50;99.90;;;;;;5015941;28;20459;-72
2020/12/05 00:47:38;;;;;;;8.60;7.70;;;5.50;99.90;;;;;;5031297;28;20821;-72
2020/12/05 00:50:04;;;;;;;10.20;9.00;;;5.60;99.90;;;;;;5026961;28;20529;-72
2020/12/05 00:52:29;;;;;;;11.23;8.73;;;5.60;99.90;;;;;;5020442;28;20183;-72
2020/12/05 00:54:55;;;;;;;10.50;8.40;;;5.60;99.90;;;;;;5023722;28;20967;-72
2020/12/05 00:57:21;;;;;;;10.47;8.63;;;5.60;99.90;;;;;;5021959;28;20316;-72
2020/12/05 00:59:46;;;;;;;10.10;9.03;;;5.60;99.90;;;;;;5031548;28;20206;-72
2020/12/05 01:02:12;;;;;;;10.87;8.80;;;5.60;99.90;;;;;;5034681;28;20195;-72
2020/12/05 01:04:37;;;;;;;10.50;9.40;;;5.70;99.90;;;;;;5026005;28;20179;-72
2020/12/05 01:07:03;;;;;;;10.80;8.50;;;5.70;99.90;;;;;;5025322;28;20189;-72
2020/12/05 01:09:28;;;;;;;9.40;8.40;;;5.80;99.90;;;;;;5019817;28;20564;-72
2020/12/05 01:11:54;;;;;;;11.07;8.27;;;5.90;99.90;;;;;;5026924;28;20227;-72
2020/12/05 01:14:19;;;;;;;8.27;7.27;;;5.90;99.90;;;;;;5026301;28;20175;-72
2020/12/05 01:16:45;;;;;;;10.80;8.97;;;5.90;99.90;;;;;;5028562;28;20605;-73
2020/12/05 01:19:11;;;;;;;11.73;9.47;;;5.90;99.90;;;;;;5024010;28;20204;-72
2020/12/05 01:21:36;;;;;;;11.77;8.87;;;6.00;99.90;;;;;;5022183;28;20493;-72
2020/12/05 01:24:02;;;;;;;9.97;8.97;;;6.00;99.90;;;;;;5015383;28;20175;-72
2020/12/05 01:26:28;;;;;;;8.90;8.00;;;6.10;99.90;;;;;;5025853;28;20637;-72
2020/12/05 01:28:53;;;;;;;14.07;9.57;;;6.00;99.90;;;;;;5020127;28;20446;-72
2020/12/05 01:31:19;;;;;;;11.23;9.57;;;6.00;99.90;;;;;;5024399;28;20171;-72
2020/12/05 01:33:44;;;;;;;9.17;8.27;;;6.10;99.90;;;;;;5022285;28;20254;-72
2020/12/05 01:36:10;;;;;;;10.33;9.33;;;6.10;99.90;;;;;;5021703;28;20573;-72
2020/12/05 01:38:36;;;;;;;10.27;9.20;;;6.00;99.90;;;;;;5032497;28;20205;-72
2020/12/05 01:41:02;;;;;;;10.27;8.97;;;6.10;99.90;;;;;;5023054;28;20521;-72
2020/12/05 01:43:29;;;;;;;12.10;9.40;;;6.00;99.90;;;;;;5015988;28;20290;-72
2020/12/05 01:45:57;;;;;;;11.80;9.60;;;6.10;99.90;;;;;;5034169;28;20418;-73
2020/12/05 01:48:23;;;;;;;12.13;9.80;;;6.00;99.90;;;;;;5017731;28;20422;-73
2020/12/05 01:50:52;;;;;;;14.73;10.87;;;6.00;99.90;;;;;;5026080;28;20505;-72
2020/12/05 01:53:17;;;;;;;13.23;10.07;;;6.00;99.90;;;;;;5027019;28;20181;-72
2020/12/05 01:55:44;;;;;;;11.60;9.10;;;6.00;99.90;;;;;;5022402;28;20536;-72
2020/12/05 01:58:10;;;;;;;13.20;11.17;;;6.10;99.90;;;;;;5027586;28;20646;-72
2020/12/05 02:00:36;;;;;;;12.90;10.27;;;6.10;99.90;;;;;;5031544;28;20442;-72
2020/12/05 02:03:02;;;;;;;11.23;9.87;;;6.20;99.90;;;;;;5022594;28;20462;-72
2020/12/05 02:06:00;;;;;;;12.47;10.30;;;6.20;99.90;;;;;;5014226;28;20182;-72
2020/12/05 02:08:54;;;;;;;14.27;10.60;;;6.20;99.90;;;;;;4996674;28;20501;-73
2020/12/05 02:11:23;;;;;;;14.20;11.80;;;6.20;99.90;;;;;;5027923;28;20422;-72
2020/12/05 02:13:54;;;;;;;14.90;12.13;;;6.20;99.90;;;;;;5022923;28;20418;-72
2020/12/05 02:16:22;;;;;;;14.20;11.23;;;6.10;99.90;;;;;;5019617;28;21042;-72
2020/12/05 02:18:52;;;;;;;17.53;12.53;;;6.10;99.90;;;;;;5020389;28;20520;-72
2020/12/05 02:21:20;;;;;;;15.97;12.27;;;6.20;99.90;;;;;;5027707;28;20418;-72
2020/12/05 02:23:46;;;;;;;16.80;11.80;;;6.10;99.90;;;;;;5015318;28;20810;-72
2020/12/05 02:26:12;;;;;;;16.27;11.80;;;6.10;99.90;;;;;;5014267;28;20415;-72
2020/12/05 02:28:38;;;;;;;14.70;11.67;;;6.20;99.90;;;;;;5026597;28;20434;-72
2020/12/05 02:31:04;;;;;;;17.53;12.23;;;6.10;99.90;;;;;;5023580;28;20722;-72
2020/12/05 02:33:29;;;;;;;15.87;11.63;;;6.20;99.90;;;;;;5026237;28;20585;-72
2020/12/05 02:35:56;;;;;;;17.50;13.67;;;6.20;99.90;;;;;;5025165;28;20262;-72
2020/12/05 02:38:45;;;;;;;16.93;13.13;;;6.10;99.90;;;;;;5022639;28;20215;-72
2020/12/05 02:41:12;;;;;;;16.67;13.37;;;6.10;99.90;;;;;;5023754;28;20504;-72
2020/12/05 02:43:38;;;;;;;15.53;12.37;;;6.00;99.90;;;;;;5025998;28;20560;-72
2020/12/05 02:46:04;;;;;;;16.17;12.30;;;6.10;99.90;;;;;;5016555;28;20441;-72
2020/12/05 02:48:29;;;;;;;16.83;13.87;;;6.10;99.90;;;;;;5013336;28;20418;-72
2020/12/05 02:50:55;;;;;;;17.50;13.73;;;6.10;99.90;;;;;;5013434;28;20249;-72
2020/12/05 02:53:20;;;;;;;17.03;14.30;;;6.20;99.90;;;;;;5029320;28;20194;-72
2020/12/05 02:55:46;;;;;;;18.57;14.03;;;6.20;99.90;;;;;;5025777;28;20177;-72
2020/12/05 02:58:11;;;;;;;19.60;14.60;;;6.20;99.90;;;;;;5017853;28;20675;-72
2020/12/05 03:00:37;;;;;;;18.57;13.77;;;6.20;99.90;;;;;;5024281;28;20539;-72
2020/12/05 03:03:04;;;;;;;18.90;15.40;;;6.20;99.90;;;;;;5026503;28;20229;-72
2020/12/05 03:05:29;;;;;;;16.50;13.30;;;6.20;99.90;;;;;;5022167;28;20418;-72
2020/12/05 03:07:55;;;;;;;18.23;13.17;;;6.20;99.90;;;;;;5032034;28;20487;-72
2020/12/05 03:10:20;;;;;;;17.63;13.13;;;6.20;99.90;;;;;;5024242;28;20227;-72
2020/12/05 03:12:46;;;;;;;18.10;13.77;;;6.20;99.90;;;;;;5023820;28;20175;-72
2020/12/05 03:15:12;;;;;;;19.30;14.67;;;6.20;99.90;;;;;;5016831;28;20186;-73
2020/12/05 03:17:37;;;;;;;21.97;14.53;;;6.20;99.90;;;;;;5022029;28;20262;-72
2020/12/05 03:20:04;;;;;;;20.33;15.47;;;6.30;99.90;;;;;;5019922;28;20211;-72
2020/12/05 03:22:29;;;;;;;21.33;15.10;;;6.30;99.90;;;;;;5028344;28;20325;-72
2020/12/05 03:24:55;;;;;;;21.33;16.10;;;6.30;99.90;;;;;;5031549;28;20520;-72
2020/12/05 03:27:21;;;;;;;20.23;15.43;;;6.30;99.90;;;;;;5017783;28;20176;-72
2020/12/05 03:29:50;;;;;;;20.13;14.63;;;6.30;99.90;;;;;;5012602;28;20210;-72
2020/12/05 03:32:19;;;;;;;18.67;14.37;;;6.20;99.90;;;;;;5018235;28;20721;-72
2020/12/05 03:34:45;;;;;;;23.87;17.40;;;6.20;99.90;;;;;;5023452;28;20433;-73
2020/12/05 03:37:11;;;;;;;18.17;14.80;;;6.20;99.90;;;;;;5027757;28;20432;-72
2020/12/05 03:39:37;;;;;;;19.27;14.10;;;6.20;99.90;;;;;;5019975;28;20194;-72
2020/12/05 03:42:03;;;;;;;20.13;15.03;;;6.30;99.90;;;;;;5014376;28;20458;-72
2020/12/05 03:44:29;;;;;;;24.67;17.03;;;6.30;99.90;;;;;;5026161;28;20179;-72
2020/12/05 03:46:56;;;;;;;20.20;15.20;;;6.30;99.90;;;;;;5020695;28;20426;-72
2020/12/05 03:49:21;;;;;;;20.97;15.10;;;6.30;99.90;;;;;;5016505;28;20985;-72
2020/12/05 03:51:47;;;;;;;20.13;15.13;;;6.30;99.90;;;;;;5031942;28;20428;-72
2020/12/05 03:54:13;;;;;;;19.67;14.13;;;6.30;99.90;;;;;;5013123;28;20194;-72
2020/12/05 03:56:38;;;;;;;20.80;14.43;;;6.30;99.90;;;;;;5020813;28;20198;-72
2020/12/05 03:59:04;;;;;;;20.83;15.00;;;6.30;99.90;;;;;;5020981;28;20214;-72
2020/12/05 04:01:29;;;;;;;20.80;15.87;;;6.30;99.90;;;;;;5031744;28;20206;-72
2020/12/05 04:03:55;;;;;;;20.57;15.23;;;6.20;99.90;;;;;;5021834;28;20165;-72
2020/12/05 04:06:20;;;;;;;22.63;15.07;;;6.20;99.90;;;;;;5020782;28;20175;-73
2020/12/05 04:08:46;;;;;;;21.90;16.30;;;6.20;99.90;;;;;;5025704;28;20237;-72
2020/12/05 04:11:11;;;;;;;21.63;15.90;;;6.10;99.90;;;;;;5023282;28;20675;-72
2020/12/05 04:13:37;;;;;;;21.80;15.40;;;6.10;99.90;;;;;;5019711;28;20180;-72
2020/12/05 04:16:02;;;;;;;23.43;15.77;;;6.10;99.90;;;;;;5028296;28;20272;-72
2020/12/05 04:18:28;;;;;;;19.27;14.67;;;6.00;99.90;;;;;;5022061;28;20211;-72
2020/12/05 04:20:53;;;;;;;24.07;16.93;;;6.00;99.90;;;;;;5024117;28;20262;-72
2020/12/05 04:23:19;;;;;;;19.13;15.40;;;5.90;99.90;;;;;;5012772;28;20325;-72
2020/12/05 04:25:44;;;;;;;22.13;16.23;;;5.90;99.90;;;;;;5020440;28;20175;-72
2020/12/05 04:28:10;;;;;;;21.40;15.90;;;5.90;99.90;;;;;;5027041;28;20171;-72
2020/12/05 04:30:36;;;;;;;27.00;17.40;;;5.90;99.90;;;;;;5029160;28;20620;-73
2020/12/05 04:33:01;;;;;;;20.00;15.77;;;5.90;99.90;;;;;;5024974;28;20191;-72
2020/12/05 04:35:27;;;;;;;23.40;15.80;;;6.00;99.90;;;;;;5022839;28;20175;-72
2020/12/05 04:37:53;;;;;;;23.53;15.63;;;6.00;99.90;;;;;;5022105;28;20581;-72
2020/12/05 04:40:18;;;;;;;20.73;15.67;;;6.00;99.90;;;;;;5025812;28;20620;-72
2020/12/05 04:42:45;;;;;;;20.13;16.37;;;6.00;99.90;;;;;;5025265;28;20202;-72
2020/12/05 04:45:12;;;;;;;21.77;15.70;;;6.00;99.90;;;;;;5029689;28;20642;-72
2020/12/05 04:47:40;;;;;;;22.47;15.47;;;6.00;99.90;;;;;;5031542;28;20417;-72
2020/12/05 04:50:06;;;;;;;20.83;15.33;;;6.00;99.90;;;;;;5023019;28;20434;-73
2020/12/05 04:52:39;;;;;;;23.00;16.03;;;6.00;99.90;;;;;;5031262;28;20825;-73
2020/12/05 04:55:06;;;;;;;23.70;15.80;;;6.00;99.90;;;;;;5010900;28;20540;-72
2020/12/05 04:57:39;;;;;;;25.20;16.53;;;6.10;99.90;;;;;;5031947;28;20934;-72
2020/12/05 05:00:06;;;;;;;21.97;16.00;;;6.10;99.90;;;;;;5032243;28;20934;-72
2020/12/05 05:02:39;;;;;;;21.60;15.97;;;6.10;99.90;;;;;;5021359;28;20559;-72
2020/12/05 05:05:04;;;;;;;20.07;15.43;;;6.20;99.90;;;;;;5024615;28;20427;-72
2020/12/05 05:07:31;;;;;;;22.87;16.07;;;6.20;99.90;;;;;;5015769;28;20565;-72
2020/12/05 05:10:07;;;;;;;20.00;14.90;;;6.20;99.90;;;;;;5031983;28;20203;-72
2020/12/05 05:12:34;;;;;;;20.57;15.30;;;6.20;99.90;;;;;;5021200;28;20477;-73
2020/12/05 05:14:59;;;;;;;21.00;14.90;;;6.20;99.90;;;;;;5016189;28;21013;-72
2020/12/05 05:17:25;;;;;;;20.27;15.00;;;6.20;99.90;;;;;;5034996;28;20549;-72
2020/12/05 05:19:51;;;;;;;22.17;17.23;;;6.30;99.90;;;;;;5019901;28;20187;-72
2020/12/05 05:22:23;;;;;;;20.83;14.60;;;6.30;99.90;;;;;;5015809;28;20640;-72
2020/12/05 05:25:06;;;;;;;18.33;14.77;;;6.30;99.90;;;;;;5016101;28;20418;-72
2020/12/05 05:27:32;;;;;;;18.60;13.80;;;6.30;99.90;;;;;;5012370;28;20409;-72
2020/12/05 05:30:13;;;;;;;22.40;14.90;;;6.30;99.90;;;;;;5032991;28;20449;-72
2020/12/05 05:32:44;;;;;;;20.40;14.90;;;6.30;99.90;;;;;;5010782;28;20429;-74
2020/12/05 05:35:13;;;;;;;18.93;14.73;;;6.30;99.90;;;;;;5025590;28;20433;-70
2020/12/05 05:37:41;;;;;;;19.03;14.90;;;6.30;99.90;;;;;;5029813;28;20425;-70
2020/12/05 05:40:09;;;;;;;23.63;15.10;;;6.30;99.90;;;;;;5011361;28;20966;-72
2020/12/05 05:42:39;;;;;;;19.77;14.73;;;6.30;99.90;;;;;;5016533;28;20477;-72
2020/12/05 05:45:38;;;;;;;19.53;14.90;;;6.30;99.90;;;;;;5014667;28;20823;-71
2020/12/05 05:48:03;;;;;;;18.80;14.30;;;6.30;99.90;;;;;;4968464;28;20497;-71
2020/12/05 05:50:34;;;;;;;21.00;15.40;;;6.30;99.90;;;;;;4993005;28;20927;-72
2020/12/05 05:53:08;;;;;;;18.87;14.40;;;6.30;99.90;;;;;;4993147;28;20237;-71
2020/12/05 05:55:41;;;;;;;19.03;14.70;;;6.30;99.90;;;;;;4987422;28;20516;-71
2020/12/05 05:58:08;;;;;;;21.33;16.10;;;6.30;99.90;;;;;;4971191;28;20505;-72
2020/12/05 06:00:39;;;;;;;21.13;16.03;;;6.30;99.90;;;;;;4992907;28;20463;-72
2020/12/05 06:03:16;;;;;;;19.30;15.43;;;6.20;99.90;;;;;;4993519;28;20539;-72
2020/12/05 06:05:47;;;;;;;22.03;15.97;;;6.20;99.90;;;;;;4993257;28;20432;-72
2020/12/05 06:08:16;;;;;;;18.90;14.90;;;6.20;99.90;;;;;;4991641;28;20490;-72
2020/12/05 06:10:47;;;;;;;21.07;14.37;;;6.20;99.90;;;;;;4993010;28;20439;-71
2020/12/05 06:13:18;;;;;;;21.60;14.87;;;6.10;99.90;;;;;;4987461;28;20458;-71
2020/12/05 06:15:44;;;;;;;22.60;15.10;;;6.20;99.90;;;;;;4993010;28;20522;-71
2020/12/05 06:18:11;;;;;;;25.87;16.03;;;6.20;99.90;;;;;;4986352;28;20515;-71
2020/12/05 06:20:38;;;;;;;20.53;15.23;;;6.20;99.90;;;;;;4992771;28;20495;-72
2020/12/05 06:23:07;;;;;;;18.70;14.17;;;6.10;99.90;;;;;;4992392;28;20467;-73
2020/12/05 06:25:34;;;;;;;22.23;15.43;;;6.10;99.90;;;;;;5027872;28;20416;-72
2020/12/05 06:28:06;;;;;;;22.50;15.97;;;6.10;99.90;;;;;;5016471;28;20414;-73
2020/12/05 06:30:33;;;;;;;23.27;16.37;;;6.10;99.90;;;;;;5015181;28;20526;-73
2020/12/05 06:32:58;;;;;;;26.23;15.80;;;6.00;99.90;;;;;;5031347;28;20759;-71
2020/12/05 06:35:24;;;;;;;23.43;15.13;;;6.00;99.90;;;;;;5014645;28;20431;-72
2020/12/05 06:37:54;;;;;;;22.27;14.83;;;6.00;99.90;;;;;;5014571;28;20171;-73
2020/12/05 06:40:21;;;;;;;20.63;13.90;;;6.00;99.90;;;;;;5006301;28;20244;-72
2020/12/05 06:42:49;;;;;;;22.67;15.40;;;6.00;99.90;;;;;;5020104;28;20457;-73
2020/12/05 06:45:26;;;;;;;23.77;15.40;;;6.00;99.90;;;;;;5033597;28;20774;-72
2020/12/05 06:48:17;;;;;;;20.50;14.10;;;6.00;99.90;;;;;;5033973;28;20420;-71
2020/12/05 06:50:45;;;;;;;27.00;14.30;;;5.90;99.90;;;;;;5020478;28;20458;-72
2020/12/05 06:53:19;;;;;;;22.40;14.67;;;5.90;99.90;;;;;;5013698;28;20997;-72
2020/12/05 06:55:46;;;;;;;21.07;15.33;;;5.90;99.90;;;;;;5015844;28;20437;-72
2020/12/05 06:58:11;;;;;;;19.40;15.03;;;5.80;99.90;;;;;;5027979;28;20435;-71
2020/12/05 07:00:38;;;;;;;22.43;14.83;;;5.80;99.90;;;;;;5022252;28;20443;-72
2020/12/05 07:03:08;;;;;;;22.50;15.40;;;5.80;99.90;;;;;;5019486;28;20696;-73
2020/12/05 07:05:42;;;;;;;17.63;14.53;;;5.80;99.90;;;;;;5029298;28;20439;-70
2020/12/05 07:08:33;;;;;;;20.73;14.00;;;5.70;99.90;;;;;;5016058;28;20867;-73
2020/12/05 07:11:00;;;;;;;20.33;14.50;;;5.80;99.90;;;;;;5008557;28;20429;-73
2020/12/05 07:13:37;;;;;;;21.73;14.90;;;5.80;99.90;;;;;;5021764;28;20487;-72
2020/12/05 07:16:25;;;;;;;20.20;14.17;;;5.80;99.90;;;;;;5014357;28;20502;-73
2020/12/05 07:18:55;;;;;;;19.00;14.23;;;5.80;99.90;;;;;;5016254;28;20438;-71
2020/12/05 07:21:22;;;;;;;20.57;14.60;;;5.80;99.90;;;;;;5030377;28;20428;-72
2020/12/05 07:23:49;;;;;;;19.20;13.30;;;5.80;99.90;;;;;;5016203;28;20454;-72
2020/12/05 07:26:15;;;;;;;19.73;14.10;;;5.80;99.90;;;;;;5020412;28;20434;-71
2020/12/05 07:28:45;;;;;;;20.40;15.37;;;5.80;99.90;;;;;;5013824;28;20467;-71
2020/12/05 07:31:11;;;;;;;20.27;14.40;;;5.80;99.90;;;;;;5028924;28;20467;-72
2020/12/05 07:33:39;;;;;;;18.73;12.47;;;5.80;99.90;;;;;;5033215;28;20422;-72
2020/12/05 07:36:06;;;;;;;18.00;12.77;;;5.70;99.90;;;;;;5023787;28;20478;-72
2020/12/05 07:38:34;;;;;;;19.13;13.50;;;5.70;99.90;;;;;;5013681;28;20436;-72
2020/12/05 07:41:11;;;;;;;19.30;13.30;;;5.70;99.90;;;;;;5021589;28;20973;-72
2020/12/05 07:43:37;;;;;;;18.17;13.70;;;5.70;99.90;;;;;;5032973;28;20455;-71
2020/12/05 07:46:13;;;;;;;17.50;13.33;;;5.70;99.90;;;;;;5031425;28;20409;-72
2020/12/05 07:48:39;;;;;;;15.30;11.93;;;5.70;99.90;;;;;;5019498;28;20461;-72
2020/12/05 07:51:15;;;;;;;14.20;11.60;;;5.70;99.90;;;;;;5013757;28;20423;-72
2020/12/05 07:53:45;;;;;;;19.50;14.53;;;5.70;99.90;;;;;;5014000;28;20422;-72
2020/12/05 07:56:19;;;;;;;18.10;12.43;;;5.70;99.90;;;;;;5029958;28;20471;-72
2020/12/05 07:58:52;;;;;;;19.37;12.97;;;5.60;99.90;;;;;;5031442;28;20923;-72
2020/12/05 08:01:48;;;;;;;20.10;13.90;;;5.60;99.90;;;;;;5031728;28;20444;-73
2020/12/05 08:04:45;;;;;;;17.40;13.07;;;5.60;99.90;;;;;;5019683;28;20418;-73
2020/12/05 08:07:20;;;;;;;17.53;13.40;;;5.60;99.90;;;;;;5011151;28;20942;-72
2020/12/05 08:09:45;;;;;;;20.27;13.90;;;5.60;99.90;;;;;;5023092;28;20445;-73
2020/12/05 08:12:13;;;;;;;16.57;12.87;;;5.60;99.90;;;;;;5032479;28;20519;-73
2020/12/05 08:14:43;;;;;;;17.73;12.70;;;5.60;99.90;;;;;;5033978;28;20185;-71
2020/12/05 08:17:10;;;;;;;18.23;12.07;;;5.60;99.90;;;;;;5035680;28;20425;-71
2020/12/05 08:19:40;;;;;;;16.67;12.20;;;5.60;99.90;;;;;;5036798;28;20506;-71
2020/12/05 08:22:08;;;;;;;18.67;13.10;;;5.70;99.90;;;;;;5036280;28;20447;-72
2020/12/05 08:24:49;;;;;;;15.20;11.40;;;5.70;99.90;;;;;;5020549;28;20478;-71
2020/12/05 08:27:17;;;;;;;16.47;10.90;;;5.70;99.90;;;;;;5011108;28;20414;-72
2020/12/05 08:29:43;;;;;;;16.70;12.57;;;5.70;99.90;;;;;;5016841;28;20481;-72
2020/12/05 08:32:16;;;;;;;15.03;10.40;;;5.70;99.90;;;;;;5035355;28;20418;-72
2020/12/05 08:34:42;;;;;;;14.50;11.00;;;5.70;99.90;;;;;;5036330;28;20417;-72
2020/12/05 08:37:14;;;;;;;15.90;12.10;;;5.80;99.90;;;;;;5026682;28;20420;-72
2020/12/05 08:39:41;;;;;;;15.83;11.30;;;5.80;99.90;;;;;;5016856;28;20242;-72
2020/12/05 08:42:07;;;;;;;16.70;12.37;;;5.80;99.90;;;;;;5016943;28;21005;-72
2020/12/05 08:44:32;;;;;;;14.50;11.27;;;5.80;99.90;;;;;;5021591;28;20420;-73
2020/12/05 08:47:08;;;;;;;14.07;10.27;;;5.80;99.90;;;;;;5035783;28;20430;-72
2020/12/05 08:49:38;;;;;;;13.57;10.10;;;5.80;99.90;;;;;;5031748;28;20679;-71
2020/12/05 08:52:05;;;;;;;14.10;9.40;;;5.90;99.90;;;;;;5024927;28;20425;-72
2020/12/05 08:54:31;;;;;;;14.20;10.80;;;5.90;99.90;;;;;;5036507;28;20428;-72
2020/12/05 08:57:09;;;;;;;13.43;9.63;;;5.90;99.90;;;;;;5035752;28;20424;-72
2020/12/05 08:59:35;;;;;;;13.57;10.33;;;5.90;99.90;;;;;;5035554;28;20508;-72
2020/12/05 09:02:01;;;;;;;12.87;9.77;;;5.90;99.90;;;;;;5035835;28;20463;-71
2020/12/05 09:04:34;;;;;;;13.53;9.40;;;5.90;99.90;;;;;;5034967;28;20786;-71
2020/12/05 09:07:18;;;;;;;12.27;10.00;;;5.90;99.90;;;;;;5035449;28;20802;-72
2020/12/05 09:09:46;;;;;;;13.63;9.70;;;6.00;99.90;;;;;;5035662;28;20455;-71
2020/12/05 09:12:14;;;;;;;13.23;9.40;;;6.00;99.90;;;;;;5028102;28;20426;-72
2020/12/05 09:14:40;;;;;;;12.10;8.80;;;6.00;99.90;;;;;;5016563;28;20549;-72
2020/12/05 09:17:22;;;;;;;11.63;8.63;;;6.00;99.90;;;;;;5016051;28;20504;-72
2020/12/05 09:19:47;;;;;;;10.10;7.33;;;6.00;99.90;;;;;;5033685;28;20464;-72
2020/12/05 09:22:33;;;;;;;9.37;8.37;;;6.00;99.90;;;;;;5057102;28;20453;-72
2020/12/05 09:24:59;;;;;;;9.27;8.10;;;6.00;99.90;;;;;;5017327;28;20164;-71
2020/12/05 09:27:39;;;;;;;9.30;8.00;;;6.00;99.90;;;;;;5026908;28;20469;-72
2020/12/05 09:30:10;;;;;;;9.10;6.83;;;6.00;99.90;;;;;;5016091;28;20437;-72
2020/12/05 09:32:43;;;;;;;8.77;6.73;;;6.00;99.90;;;;;;5016467;28;20954;-72
2020/12/05 09:35:10;;;;;;;9.23;6.60;;;6.00;99.90;;;;;;5034616;28;20464;-72
2020/12/05 09:37:36;;;;;;;6.90;5.73;;;6.00;99.90;;;;;;5035008;28;20424;-73
2020/12/05 09:40:03;;;;;;;8.70;6.03;;;6.00;99.90;;;;;;5026148;28;20769;-72
2020/12/05 09:42:28;;;;;;;8.00;6.10;;;6.10;99.90;;;;;;5035214;28;20226;-72
2020/12/05 09:44:54;;;;;;;7.30;6.03;;;6.20;99.90;;;;;;5034982;28;20501;-72
2020/12/05 09:47:20;;;;;;;6.20;5.60;;;6.30;99.90;;;;;;5031563;28;20258;-72
2020/12/05 09:49:45;;;;;;;6.77;5.63;;;6.40;99.90;;;;;;5021763;28;20194;-72
2020/12/05 09:52:11;;;;;;;6.47;5.60;;;6.50;99.90;;;;;;5034677;28;20202;-72
2020/12/05 09:54:36;;;;;;;8.67;6.17;;;6.60;99.90;;;;;;5034713;28;20695;-72
2020/12/05 09:57:05;;;;;;;6.63;5.90;;;6.70;99.90;;;;;;5027257;28;20254;-72
2020/12/05 09:59:30;;;;;;;6.20;5.60;;;6.80;99.90;;;;;;5015398;28;20715;-72
2020/12/05 10:01:56;;;;;;;5.37;4.87;;;6.90;99.90;;;;;;5016855;28;20542;-73
2020/12/05 10:04:22;;;;;;;5.20;4.70;;;6.90;99.90;;;;;;5024109;28;20253;-71
2020/12/05 10:06:48;;;;;;;7.07;6.07;;;6.90;99.90;;;;;;5034523;28;20454;-71
2020/12/05 10:09:14;;;;;;;6.00;5.40;;;7.00;99.90;;;;;;5026471;28;20458;-70
2020/12/05 10:11:39;;;;;;;5.27;4.77;;;7.00;99.90;;;;;;5025494;28;20183;-71
2020/12/05 10:14:05;;;;;;;5.40;4.87;;;7.00;99.90;;;;;;5021318;28;20621;-71
2020/12/05 10:16:33;;;;;;;5.50;5.00;;;7.00;99.90;;;;;;5015155;28;20518;-72
2020/12/05 10:18:59;;;;;;;5.43;4.90;;;7.00;99.90;;;;;;5026409;28;20207;-72
2020/12/05 10:21:25;;;;;;;5.00;4.50;;;7.00;99.90;;;;;;5034554;28;20421;-71
2020/12/05 10:23:50;;;;;;;4.60;3.87;;;7.00;99.90;;;;;;5033120;28;20607;-72
2020/12/05 10:26:16;;;;;;;4.13;3.73;;;7.00;99.90;;;;;;5020630;28;20631;-72
2020/12/05 10:28:41;;;;;;;6.43;4.30;;;7.00;99.90;;;;;;5014912;28;20553;-72
2020/12/05 10:31:07;;;;;;;4.20;3.80;;;6.90;99.90;;;;;;5015204;28;20195;-72
2020/12/05 10:33:32;;;;;;;3.83;3.53;;;6.90;99.90;;;;;;5029278;28;20186;-72
2020/12/05 10:35:58;;;;;;;5.10;4.60;;;6.90;99.90;;;;;;5016782;28;20212;-72
2020/12/05 10:38:23;;;;;;;4.60;3.40;;;6.90;99.90;;;;;;5026381;28;20181;-72
2020/12/05 10:40:49;;;;;;;4.07;3.67;;;6.80;99.90;;;;;;5018518;28;20175;-72
2020/12/05 10:43:14;;;;;;;3.50;3.20;;;6.80;99.90;;;;;;5033576;28;20582;-72
2020/12/05 10:45:40;;;;;;;3.73;3.37;;;6.80;99.90;;;;;;5034226;28;20682;-72
2020/12/05 10:48:05;;;;;;;4.03;3.47;;;6.80;99.90;;;;;;5016655;28;20199;-72
2020/12/05 10:50:31;;;;;;;4.33;3.83;;;6.90;99.90;;;;;;5014488;28;20191;-72
2020/12/05 10:52:56;;;;;;;3.60;3.30;;;7.00;99.90;;;;;;5014924;28;20206;-72
2020/12/05 10:55:22;;;;;;;2.73;2.53;;;7.10;99.90;;;;;;5014697;28;20186;-72
2020/12/05 10:57:47;;;;;;;3.20;2.97;;;7.10;99.90;;;;;;5015231;28;20555;-71
2020/12/05 11:00:13;;;;;;;2.40;2.20;;;7.20;99.90;;;;;;5014423;28;20204;-72
2020/12/05 11:02:38;;;;;;;2.30;2.10;;;7.30;99.90;;;;;;5014245;28;20199;-71
2020/12/05 11:05:05;;;;;;;2.37;2.27;;;7.30;99.90;;;;;;5020487;28;20191;-73
2020/12/05 11:07:31;;;;;;;1.83;1.73;;;7.30;99.90;;;;;;5032924;28;20648;-73
2020/12/05 11:09:56;;;;;;;2.27;2.13;;;7.40;99.90;;;;;;5033539;28;20541;-72
2020/12/05 11:12:22;;;;;;;2.60;1.83;;;7.40;99.90;;;;;;5025622;28;20180;-70
2020/12/05 11:14:47;;;;;;;2.87;2.00;;;7.60;99.90;;;;;;5014233;28;20521;-71
2020/12/05 11:17:13;;;;;;;1.97;1.80;;;7.60;99.40;;;;;;5013743;28;20183;-72
2020/12/05 11:19:38;;;;;;;2.33;2.13;;;7.60;99.00;;;;;;5022238;28;20656;-72
2020/12/05 11:22:04;;;;;;;1.60;1.50;;;7.70;98.80;;;;;;5032345;28;20629;-72
2020/12/05 11:24:29;;;;;;;2.20;1.87;;;7.60;98.10;;;;;;5032587;28;20186;-71
2020/12/05 11:26:55;;;;;;;2.73;1.90;;;7.60;97.70;;;;;;5021695;28;20179;-72
2020/12/05 11:29:21;;;;;;;1.53;1.43;;;7.70;97.60;;;;;;5013473;28;20193;-72
2020/12/05 11:31:46;;;;;;;1.60;1.50;;;7.60;97.70;;;;;;5012247;28;20172;-72
2020/12/05 11:34:12;;;;;;;1.60;1.50;;;7.60;97.60;;;;;;5011927;28;20187;-72
2020/12/05 11:36:42;;;;;;;1.30;1.23;;;7.60;97.60;;;;;;5028826;28;20628;-72
2020/12/05 11:39:08;;;;;;;1.97;1.60;;;7.70;97.60;;;;;;5032278;28;20640;-72
2020/12/05 11:41:34;;;;;;;1.70;1.60;;;7.70;97.50;;;;;;5017948;28;20472;-72
2020/12/05 11:44:02;;;;;;;1.60;1.50;;;7.70;97.60;;;;;;5013734;28;20201;-72
2020/12/05 11:46:28;;;;;;;1.63;1.47;;;7.70;97.70;;;;;;5019292;28;20190;-72
2020/12/05 11:48:54;;;;;;;1.93;1.73;;;7.70;97.60;;;;;;5015305;28;20958;-72
2020/12/05 11:51:24;;;;;;;1.33;1.23;;;7.80;97.30;;;;;;5014094;28;20407;-72
2020/12/05 11:53:49;;;;;;;1.57;1.47;;;7.70;97.00;;;;;;5014549;28;20171;-72
2020/12/05 11:56:14;;;;;;;1.70;1.60;;;7.60;96.70;;;;;;5025678;28;20832;-72
2020/12/05 11:58:40;;;;;;;2.40;1.77;;;7.60;97.20;;;;;;5034152;28;20218;-71
2020/12/05 12:01:06;;;;;;;1.50;1.40;;;7.60;97.10;;;;;;5034552;28;20207;-71
2020/12/05 12:03:32;;;;;;;1.60;1.50;;;7.60;97.00;;;;;;5032925;28;20198;-72
2020/12/05 12:05:57;;;;;;;1.80;1.70;;;7.60;97.10;;;;;;5026064;28;20270;-71
2020/12/05 12:08:23;;;;;;;2.20;1.50;;;7.60;96.90;;;;;;5030311;28;20438;-71
2020/12/05 12:10:48;;;;;;;1.70;1.50;;;7.60;96.70;;;;;;5014527;28;20180;-72
2020/12/05 12:13:14;;;;;;;1.90;1.80;;;7.70;96.60;;;;;;5016317;28;20270;-72
2020/12/05 12:15:39;;;;;;;1.33;1.23;;;7.60;96.20;;;;;;5028459;28;20205;-72
2020/12/05 12:18:05;;;;;;;3.63;1.70;;;7.60;96.30;;;;;;5013747;28;20519;-72
2020/12/05 12:20:30;;;;;;;1.30;1.20;;;7.60;96.30;;;;;;5014507;28;20274;-72
2020/12/05 12:22:56;;;;;;;1.37;1.23;;;7.60;96.50;;;;;;5015276;28;20204;-72
2020/12/05 12:25:21;;;;;;;1.73;1.63;;;7.60;96.50;;;;;;5013918;28;20179;-72
2020/12/05 12:27:47;;;;;;;1.80;1.70;;;7.60;96.80;;;;;;5026914;28;20175;-72
2020/12/05 12:30:12;;;;;;;1.90;1.70;;;7.60;96.90;;;;;;5024243;28;20606;-72
2020/12/05 12:32:38;;;;;;;2.00;1.80;;;7.60;97.00;;;;;;5012958;28;20184;-72
2020/12/05 12:35:03;;;;;;;2.63;1.63;;;7.60;97.10;;;;;;5019463;28;20620;-72
2020/12/05 12:37:29;;;;;;;1.80;1.70;;;7.70;97.10;;;;;;5021224;28;20176;-72
2020/12/05 12:39:55;;;;;;;1.63;1.53;;;7.70;96.90;;;;;;5012734;28;20187;-72
2020/12/05 12:42:25;;;;;;;2.23;1.43;;;7.70;96.80;;;;;;5012198;28;20644;-72
2020/12/05 12:44:51;;;;;;;2.03;1.60;;;7.70;96.90;;;;;;5024948;28;20160;-72
2020/12/05 12:47:37;;;;;;;2.23;1.77;;;7.70;96.80;;;;;;5030284;28;20504;-71
2020/12/05 12:50:04;;;;;;;1.60;1.50;;;7.60;96.70;;;;;;5006800;28;20208;-70